createdAt,value
2022-08-03T00:00:40.036Z,7.80
2022-08-03T00:03:08.197Z,6.60
2022-08-03T00:06:03.564Z,7.00
2022-08-03T00:08:30.936Z,7.10
2022-08-03T00:11:00.330Z,5.80
2022-08-03T00:13:28.512Z,5.50
2022-08-03T00:15:56.565Z,4.80
2022-08-03T00:18:24.947Z,4.20
2022-08-03T00:20:53.268Z,3.90
2022-08-03T00:23:21.621Z,5.80
2022-08-03T00:25:49.685Z,4.70
2022-08-03T00:28:20.355Z,4.80
2022-08-03T00:30:48.960Z,4.60
2022-08-03T00:33:18.675Z,4.50
2022-08-03T00:35:50.461Z,5.10
2022-08-03T00:38:21.259Z,5.00
2022-08-03T00:40:49.604Z,4.80
2022-08-03T00:43:18.264Z,5.40
2022-08-03T00:45:46.835Z,5.50
2022-08-03T00:48:29.478Z,5.20
2022-08-03T00:51:01.722Z,5.20
2022-08-03T00:53:35.486Z,4.50
2022-08-03T00:56:03.665Z,4.80
2022-08-03T00:58:31.650Z,5.00
2022-08-03T01:01:00.061Z,5.10
2022-08-03T01:03:35.019Z,4.50
2022-08-03T01:06:15.604Z,5.70
2022-08-03T01:08:52.629Z,5.00
2022-08-03T01:12:00.066Z,5.90
2022-08-03T01:14:51.228Z,5.50
2022-08-03T01:17:44.229Z,5.50
2022-08-03T01:20:17.209Z,5.50
2022-08-03T01:23:06.403Z,4.90
2022-08-03T01:26:03.954Z,5.10
2022-08-03T01:29:09.031Z,5.20
2022-08-03T01:32:59.231Z,5.60
2022-08-03T01:34:52.352Z,5.70
2022-08-03T01:37:27.475Z,8.40
2022-08-03T01:39:58.581Z,6.90
2022-08-03T01:42:29.249Z,6.70
2022-08-03T01:45:00.127Z,6.70
2022-08-03T01:47:29.644Z,5.40
2022-08-03T01:49:59.268Z,5.90
2022-08-03T01:52:34.243Z,5.10
2022-08-03T01:55:04.270Z,5.60
2022-08-03T01:57:33.995Z,5.30
2022-08-03T02:00:24.239Z,6.00
2022-08-03T02:02:57.036Z,5.70
2022-08-03T02:05:29.711Z,4.60
2022-08-03T02:07:59.745Z,5.50
2022-08-03T02:10:36.008Z,4.70
2022-08-03T02:13:07.450Z,4.90
2022-08-03T02:15:37.992Z,4.90
2022-08-03T02:18:08.933Z,4.70
2022-08-03T02:20:40.245Z,5.00
2022-08-03T02:23:08.905Z,5.30
2022-08-03T02:25:43.690Z,4.10
2022-08-03T02:28:16.645Z,4.70
2022-08-03T02:30:54.654Z,4.80
2022-08-03T02:33:28.825Z,4.80
2022-08-03T02:35:58.138Z,4.90
2022-08-03T02:38:31.389Z,4.70
2022-08-03T02:41:01.227Z,4.90
2022-08-03T02:44:05.394Z,4.90
2022-08-03T02:46:21.316Z,4.40
2022-08-03T02:48:54.861Z,4.50
2022-08-03T02:51:25.008Z,4.10
2022-08-03T02:53:55.499Z,4.50
2022-08-03T02:56:26.014Z,4.50
2022-08-03T02:58:55.703Z,4.40
2022-08-03T03:01:27.434Z,5.10
2022-08-03T03:03:57.812Z,5.00
2022-08-03T03:06:27.521Z,4.60
2022-08-03T03:08:59.934Z,4.50
2022-08-03T03:11:33.995Z,4.90
2022-08-03T03:14:03.179Z,4.10
2022-08-03T03:16:32.315Z,5.80
2022-08-03T03:19:02.933Z,5.70
2022-08-03T03:21:33.255Z,4.70
2022-08-03T03:24:02.647Z,4.80
2022-08-03T03:26:31.163Z,5.00
2022-08-03T03:28:59.510Z,4.40
2022-08-03T03:31:27.925Z,4.10
2022-08-03T03:34:00.161Z,4.80
2022-08-03T03:36:28.667Z,5.10
2022-08-03T03:38:57.596Z,4.80
2022-08-03T03:41:25.841Z,4.60
2022-08-03T03:44:01.091Z,5.20
2022-08-03T03:46:29.755Z,4.70
2022-08-03T03:48:57.894Z,4.30
2022-08-03T03:51:26.036Z,4.70
2022-08-03T03:54:02.288Z,4.20
2022-08-03T03:56:40.206Z,4.80
2022-08-03T03:59:12.304Z,5.10
2022-08-03T04:01:46.822Z,4.30
2022-08-03T04:04:58.178Z,5.10
2022-08-03T04:07:46.282Z,5.30
2022-08-03T04:10:42.401Z,4.50
2022-08-03T04:13:15.306Z,4.70
2022-08-03T04:15:48.281Z,5.20
2022-08-03T04:18:19.299Z,5.00
2022-08-03T04:20:50.243Z,5.00
2022-08-03T04:23:21.462Z,4.90
2022-08-03T04:25:55.991Z,5.70
2022-08-03T04:28:31.070Z,5.40
2022-08-03T04:31:02.464Z,6.00
2022-08-03T04:33:34.822Z,5.40
2022-08-03T04:36:08.009Z,5.40
2022-08-03T04:38:40.838Z,5.70
2022-08-03T04:41:10.651Z,5.80
2022-08-03T04:43:40.968Z,5.50
2022-08-03T04:46:11.244Z,5.80
2022-08-03T04:48:43.516Z,5.70
2022-08-03T04:51:13.754Z,5.70
2022-08-03T04:53:45.818Z,6.50
2022-08-03T04:56:16.994Z,6.00
2022-08-03T04:58:49.121Z,6.30
2022-08-03T05:01:21.263Z,5.50
2022-08-03T05:04:11.628Z,6.30
2022-08-03T05:06:48.010Z,6.50
2022-08-03T05:09:45.997Z,6.70
2022-08-03T05:12:08.140Z,6.00
2022-08-03T05:14:38.907Z,6.00
2022-08-03T05:17:08.753Z,5.80
2022-08-03T05:19:37.102Z,6.30
2022-08-03T05:22:06.194Z,6.50
2022-08-03T05:24:34.137Z,6.30
2022-08-03T05:27:04.629Z,6.30
2022-08-03T05:29:32.731Z,6.10
2022-08-03T05:32:07.785Z,6.10
2022-08-03T05:34:36.556Z,6.20
2022-08-03T05:37:04.842Z,5.40
2022-08-03T05:39:33.753Z,6.10
2022-08-03T05:42:03.622Z,4.70
2022-08-03T05:44:32.364Z,5.10
2022-08-03T05:47:00.872Z,4.90
2022-08-03T05:49:29.096Z,5.30
2022-08-03T05:52:00.027Z,4.30
2022-08-03T05:54:55.373Z,3.90
2022-08-03T05:57:26.531Z,4.50
2022-08-03T05:59:58.520Z,4.60
2022-08-03T06:02:27.392Z,3.90
2022-08-03T06:04:55.531Z,3.90
2022-08-03T06:07:23.741Z,3.80
2022-08-03T06:10:34.581Z,3.60
2022-08-03T06:12:41.692Z,2.80
2022-08-03T06:15:11.179Z,3.20
2022-08-03T06:17:50.692Z,3.50
2022-08-03T06:20:28.469Z,3.30
2022-08-03T06:23:01.027Z,3.10
2022-08-03T06:25:29.599Z,3.00
2022-08-03T06:27:57.858Z,2.70
2022-08-03T06:30:26.944Z,3.30
2022-08-03T06:32:55.239Z,3.60
2022-08-03T06:35:23.290Z,3.60
2022-08-03T06:37:52.799Z,4.40
2022-08-03T06:40:34.826Z,3.10
2022-08-03T06:43:04.068Z,3.30
2022-08-03T06:45:33.334Z,3.70
2022-08-03T06:48:04.378Z,3.50
2022-08-03T06:50:40.123Z,3.40
2022-08-03T06:53:18.294Z,3.10
2022-08-03T06:55:54.677Z,3.50
2022-08-03T06:58:23.676Z,3.40
2022-08-03T07:00:51.682Z,3.30
2022-08-03T07:03:19.823Z,3.20
2022-08-03T07:05:51.506Z,4.10
2022-08-03T07:08:19.610Z,3.40
2022-08-03T07:11:02.324Z,2.80
2022-08-03T07:13:30.865Z,3.60
2022-08-03T07:15:58.948Z,2.60
2022-08-03T07:18:29.480Z,1.90
2022-08-03T07:20:58.650Z,2.70
2022-08-03T07:23:26.832Z,2.50
2022-08-03T07:25:54.992Z,2.40
2022-08-03T07:28:23.078Z,2.90
2022-08-03T07:30:51.179Z,3.00
2022-08-03T07:33:19.138Z,2.90
2022-08-03T07:35:47.203Z,2.70
2022-08-03T07:38:15.200Z,2.70
2022-08-03T07:40:46.250Z,3.10
2022-08-03T07:43:14.626Z,2.80
2022-08-03T07:45:44.338Z,2.80
2022-08-03T07:48:12.779Z,2.40
2022-08-03T07:50:41.156Z,3.60
2022-08-03T07:53:09.354Z,2.50
2022-08-03T07:55:37.475Z,2.00
2022-08-03T07:58:12.618Z,2.30
2022-08-03T08:00:40.940Z,2.80
2022-08-03T08:03:08.917Z,2.60
2022-08-03T08:05:37.711Z,2.40
2022-08-03T08:08:07.126Z,2.30
2022-08-03T08:10:41.978Z,2.30
2022-08-03T08:13:29.440Z,2.60
2022-08-03T08:16:00.937Z,2.00
2022-08-03T08:18:32.346Z,1.70
2022-08-03T08:21:08.918Z,2.30
2022-08-03T08:23:43.112Z,2.10
2022-08-03T08:26:13.966Z,2.20
2022-08-03T08:28:44.558Z,2.20
2022-08-03T08:31:14.984Z,2.60
2022-08-03T08:34:03.046Z,2.10
2022-08-03T08:36:35.457Z,2.40
2022-08-03T08:39:04.113Z,2.00
2022-08-03T08:41:34.989Z,2.20
2022-08-03T08:44:04.216Z,1.70
2022-08-03T08:46:33.757Z,1.60
2022-08-03T08:49:03.804Z,2.30
2022-08-03T08:51:54.249Z,2.20
2022-08-03T08:54:33.911Z,2.50
2022-08-03T08:57:21.345Z,1.70
2022-08-03T09:00:14.568Z,2.00
2022-08-03T09:02:44.767Z,2.60
2022-08-03T09:05:31.481Z,2.50
2022-08-03T09:08:08.772Z,4.30
2022-08-03T09:10:36.867Z,2.40
2022-08-03T09:13:05.616Z,2.70
2022-08-03T09:15:34.393Z,2.20
2022-08-03T09:18:04.791Z,2.20
2022-08-03T09:20:35.276Z,2.60
2022-08-03T09:23:26.219Z,2.10
2022-08-03T09:26:01.729Z,2.70
2022-08-03T09:29:00.544Z,2.30
2022-08-03T09:31:43.345Z,2.80
2022-08-03T09:34:20.210Z,2.50
2022-08-03T09:36:51.938Z,2.40
2022-08-03T09:39:41.131Z,2.20
2022-08-03T09:42:23.647Z,2.10
2022-08-03T09:44:55.643Z,3.20
2022-08-03T09:47:33.715Z,2.20
2022-08-03T09:50:04.750Z,1.70
2022-08-03T09:52:49.097Z,2.00
2022-08-03T09:56:33.878Z,2.00
2022-08-03T09:58:14.534Z,1.90
2022-08-03T10:01:01.307Z,2.40
2022-08-03T10:03:46.945Z,2.30
2022-08-03T10:06:29.327Z,2.50
2022-08-03T10:09:21.537Z,2.10
2022-08-03T10:11:52.817Z,2.50
2022-08-03T10:14:28.579Z,2.30
2022-08-03T10:17:03.645Z,2.50
2022-08-03T10:19:31.689Z,2.50
2022-08-03T10:22:42.482Z,2.40
2022-08-03T10:25:14.588Z,2.00
2022-08-03T10:27:47.920Z,2.20
2022-08-03T10:30:21.641Z,3.00
2022-08-03T10:33:50.907Z,2.80
2022-08-03T10:36:03.125Z,2.00
2022-08-03T10:38:38.791Z,2.90
2022-08-03T10:41:09.159Z,2.20
2022-08-03T10:43:49.540Z,2.10
2022-08-03T10:46:23.275Z,1.80
2022-08-03T10:48:58.484Z,2.10
2022-08-03T10:51:32.415Z,2.90
2022-08-03T10:54:01.765Z,2.30
2022-08-03T10:57:02.617Z,1.90
2022-08-03T10:59:46.817Z,2.20
2022-08-03T11:02:23.982Z,2.20
2022-08-03T11:05:28.550Z,2.30
2022-08-03T11:08:21.856Z,1.80
2022-08-03T11:14:08.241Z,2.20
2022-08-03T11:16:48.313Z,2.50
2022-08-03T11:19:20.024Z,2.20
2022-08-03T11:21:51.596Z,2.10
2022-08-03T11:24:41.011Z,2.00
2022-08-03T11:27:28.968Z,2.10
2022-08-03T11:30:19.909Z,2.00
2022-08-03T11:32:52.607Z,1.80
2022-08-03T11:35:53.993Z,1.80
2022-08-03T11:38:25.377Z,2.00
2022-08-03T11:40:54.865Z,2.30
2022-08-03T11:43:30.780Z,2.30
2022-08-03T11:46:03.352Z,1.90
2022-08-03T11:48:40.085Z,1.90
2022-08-03T11:51:23.727Z,1.90
2022-08-03T11:54:06.415Z,2.30
2022-08-03T11:56:49.357Z,2.60
2022-08-03T12:02:13.042Z,1.80
2022-08-03T12:04:58.830Z,2.30
2022-08-03T12:08:03.826Z,2.20
2022-08-03T12:10:17.050Z,1.90
2022-08-03T12:12:49.292Z,1.40
2022-08-03T12:15:25.660Z,2.00
2022-08-03T12:17:57.705Z,2.60
2022-08-03T12:20:35.055Z,2.00
2022-08-03T12:23:06.423Z,2.30
2022-08-03T12:25:39.038Z,2.10
2022-08-03T12:28:36.330Z,2.40
2022-08-03T12:31:12.891Z,2.00
2022-08-03T12:34:05.255Z,2.20
2022-08-03T12:36:35.410Z,1.70
2022-08-03T12:39:09.157Z,2.20
2022-08-03T12:41:39.912Z,2.00
2022-08-03T12:44:11.907Z,2.20
2022-08-03T12:46:47.707Z,2.20
2022-08-03T12:49:18.903Z,2.50
2022-08-03T12:51:46.976Z,1.90
2022-08-03T12:54:24.603Z,2.00
2022-08-03T12:57:11.144Z,3.40
2022-08-03T12:59:52.824Z,1.90
2022-08-03T13:02:26.486Z,2.00
2022-08-03T13:04:55.182Z,2.20
2022-08-03T13:07:23.555Z,2.30
2022-08-03T13:09:54.753Z,1.80
2022-08-03T13:12:27.703Z,2.10
2022-08-03T13:14:57.683Z,2.10
2022-08-03T13:17:26.877Z,1.90
2022-08-03T13:19:54.837Z,2.30
2022-08-03T13:22:25.819Z,2.00
2022-08-03T13:24:57.684Z,2.20
2022-08-03T13:28:04.415Z,2.00
2022-08-03T13:30:27.526Z,1.70
2022-08-03T13:33:00.322Z,2.70
2022-08-03T13:35:28.377Z,2.10
2022-08-03T13:37:56.331Z,2.30
2022-08-03T13:40:30.167Z,2.30
2022-08-03T13:42:58.734Z,2.30
2022-08-03T13:45:27.667Z,1.60
2022-08-03T13:47:55.672Z,1.70
2022-08-03T13:50:23.986Z,2.00
2022-08-03T13:52:52.050Z,1.90
2022-08-03T13:55:19.890Z,2.10
2022-08-03T13:58:04.545Z,2.50
2022-08-03T14:00:41.710Z,1.80
2022-08-03T14:03:14.050Z,1.70
2022-08-03T14:05:44.157Z,1.70
2022-08-03T14:08:13.048Z,2.30
2022-08-03T14:10:44.056Z,1.80
2022-08-03T14:13:16.845Z,1.90
2022-08-03T14:15:50.933Z,2.40
2022-08-03T14:21:06.709Z,2.90
2022-08-03T14:23:37.987Z,2.00
2022-08-03T14:26:07.329Z,2.30
2022-08-03T14:28:36.195Z,1.80
2022-08-03T14:31:04.653Z,2.00
2022-08-03T14:33:36.655Z,2.00
2022-08-03T14:36:05.105Z,2.40
2022-08-03T14:38:33.212Z,2.10
2022-08-03T14:41:12.231Z,2.30
2022-08-03T14:44:00.415Z,1.50
2022-08-03T14:46:32.403Z,2.10
2022-08-03T14:50:37.034Z,2.60
2022-08-03T14:52:01.175Z,2.40
2022-08-03T14:54:31.513Z,1.70
2022-08-03T14:57:00.289Z,2.40
2022-08-03T14:59:28.324Z,1.90
2022-08-03T15:02:23.327Z,1.70
2022-08-03T15:04:52.221Z,2.40
2022-08-03T15:07:20.966Z,2.00
2022-08-03T15:09:49.226Z,2.20
2022-08-03T15:12:17.406Z,2.30
2022-08-03T15:14:45.394Z,2.00
2022-08-03T15:17:13.567Z,2.10
2022-08-03T15:20:02.796Z,3.00
2022-08-03T15:22:34.622Z,1.70
2022-08-03T15:26:29.500Z,1.80
2022-08-03T15:28:03.777Z,2.00
2022-08-03T15:30:38.963Z,2.20
2022-08-03T15:33:07.050Z,1.60
2022-08-03T15:35:35.644Z,2.00
2022-08-03T15:38:08.774Z,1.60
2022-08-03T15:40:37.869Z,1.80
2022-08-03T15:43:06.967Z,1.40
2022-08-03T15:45:36.530Z,1.90
2022-08-03T15:48:05.884Z,1.90
2022-08-03T15:50:34.647Z,2.00
2022-08-03T15:53:02.862Z,1.80
2022-08-03T15:55:31.653Z,1.70
2022-08-03T15:59:04.065Z,1.50
2022-08-03T16:00:47.785Z,1.80
2022-08-03T16:03:15.837Z,1.70
2022-08-03T16:05:43.747Z,1.90
2022-08-03T16:08:13.931Z,1.90
2022-08-03T16:10:42.798Z,1.90
2022-08-03T16:13:11.053Z,1.80
2022-08-03T16:15:39.182Z,2.00
2022-08-03T16:18:07.609Z,1.60
2022-08-03T16:20:35.906Z,1.70
2022-08-03T16:23:08.538Z,1.90
2022-08-03T16:25:40.636Z,1.70
2022-08-03T16:28:13.808Z,1.60
2022-08-03T16:30:44.668Z,1.50
2022-08-03T16:33:17.481Z,1.60
2022-08-03T16:35:46.904Z,1.60
2022-08-03T16:38:19.450Z,2.80
2022-08-03T16:40:52.004Z,1.80
2022-08-03T16:43:22.907Z,2.20
2022-08-03T16:45:51.742Z,1.90
2022-08-03T16:48:20.694Z,2.40
2022-08-03T16:50:49.049Z,1.90
2022-08-03T16:53:33.298Z,2.00
2022-08-03T16:56:09.865Z,2.00
2022-08-03T16:58:42.243Z,2.10
2022-08-03T17:04:03.196Z,3.50
2022-08-03T17:06:36.971Z,2.20
2022-08-03T17:09:13.820Z,2.10
2022-08-03T17:11:51.268Z,2.20
2022-08-03T17:14:29.277Z,2.40
2022-08-03T17:17:03.837Z,1.90
2022-08-03T17:19:35.143Z,2.00
2022-08-03T17:22:11.098Z,2.10
2022-08-03T17:24:44.343Z,1.80
2022-08-03T17:28:41.326Z,2.40
2022-08-03T17:30:13.334Z,2.20
2022-08-03T17:32:56.717Z,2.30
2022-08-03T17:35:36.559Z,2.20
2022-08-03T17:38:12.035Z,2.60
2022-08-03T17:40:43.066Z,3.20
2022-08-03T17:44:12.761Z,3.10
2022-08-03T17:46:10.679Z,3.00
2022-08-03T17:48:41.327Z,3.20
2022-08-03T17:51:33.341Z,2.80
2022-08-03T17:54:18.231Z,3.20
2022-08-03T17:56:56.039Z,3.00
2022-08-03T18:02:48.284Z,3.40
2022-08-03T18:05:21.992Z,3.00
2022-08-03T18:08:01.466Z,3.50
2022-08-03T18:10:35.788Z,2.70
2022-08-03T18:13:11.009Z,4.20
2022-08-03T18:16:04.806Z,3.20
2022-08-03T18:18:40.751Z,2.90
2022-08-03T18:21:16.768Z,3.80
2022-08-03T18:23:50.113Z,3.60
2022-08-03T18:26:22.013Z,3.80
2022-08-03T18:28:54.102Z,4.40
2022-08-03T18:31:33.130Z,4.40
2022-08-03T18:34:32.329Z,4.40
2022-08-03T18:37:10.994Z,4.40
2022-08-03T18:39:50.347Z,18.30
2022-08-03T18:42:26.131Z,28.60
2022-08-03T18:44:56.829Z,9.50
2022-08-03T18:48:07.813Z,10.30
2022-08-03T18:50:50.102Z,11.70
2022-08-03T18:54:03.418Z,12.70
2022-08-03T18:57:13.062Z,9.80
2022-08-03T18:59:59.141Z,21.60
2022-08-03T19:02:38.821Z,30.60
2022-08-03T19:05:09.464Z,13.30
2022-08-03T19:07:40.795Z,7.30
2022-08-03T19:10:15.724Z,7.90
2022-08-03T19:12:53.158Z,25.20
2022-08-03T19:15:36.369Z,26.60
2022-08-03T19:18:10.432Z,23.90
2022-08-03T19:20:41.232Z,21.70
2022-08-03T19:23:17.560Z,18.90
2022-08-03T19:25:49.777Z,15.70
2022-08-03T19:28:18.639Z,14.90
2022-08-03T19:30:53.630Z,11.90
2022-08-03T19:33:29.988Z,11.20
2022-08-03T19:35:58.960Z,10.60
2022-08-03T19:38:29.845Z,10.60
2022-08-03T19:41:06.075Z,9.60
2022-08-03T19:43:49.338Z,13.80
2022-08-03T19:46:30.908Z,24.70
2022-08-03T19:49:14.967Z,30.40
2022-08-03T19:52:00.704Z,35.10
2022-08-03T19:54:39.760Z,36.20
2022-08-03T19:57:33.333Z,28.20
2022-08-03T20:03:46.309Z,22.10
2022-08-03T20:10:09.946Z,12.90
2022-08-03T20:12:52.021Z,13.40
2022-08-03T20:15:33.564Z,12.90
2022-08-03T20:18:39.566Z,13.80
2022-08-03T20:22:14.390Z,16.20
2022-08-03T20:25:21.673Z,16.00
2022-08-03T20:32:42.722Z,17.60
2022-08-03T20:36:01.930Z,13.60
2022-08-03T20:38:57.493Z,11.90
2022-08-03T20:41:40.640Z,11.00
2022-08-03T20:44:45.248Z,9.60
2022-08-03T20:47:50.498Z,7.90
2022-08-03T20:50:27.733Z,6.70
2022-08-03T20:53:12.142Z,6.10
2022-08-03T20:56:02.212Z,6.50
2022-08-03T21:02:38.245Z,5.90
2022-08-03T21:05:47.797Z,5.10
2022-08-03T21:08:34.484Z,4.60
2022-08-03T21:11:30.285Z,4.10
2022-08-03T21:13:04.111Z,2.60
2022-08-03T21:13:07.829Z,6.00
2022-08-03T21:13:08.515Z,24.10
2022-08-03T21:13:14.146Z,19.40
2022-08-03T21:14:36.799Z,4.70
2022-08-03T21:17:14.125Z,4.50
2022-08-03T21:19:55.477Z,4.50
2022-08-03T21:22:29.566Z,5.10
2022-08-03T21:25:00.543Z,4.50
2022-08-03T21:27:32.160Z,3.80
2022-08-03T21:30:07.851Z,3.90
2022-08-03T21:32:40.438Z,4.20
2022-08-03T21:35:10.638Z,4.70
2022-08-03T21:37:40.459Z,5.50
2022-08-03T21:40:13.759Z,5.80
2022-08-03T21:42:43.649Z,5.80
2022-08-03T21:45:17.134Z,8.10
2022-08-03T21:50:15.268Z,7.30
2022-08-03T21:52:53.359Z,7.00
2022-08-03T21:55:31.715Z,7.60
2022-08-03T21:58:05.034Z,7.10
2022-08-03T22:00:36.975Z,7.00
2022-08-03T22:03:18.054Z,6.20
2022-08-03T22:08:49.703Z,6.60
2022-08-03T22:12:51.968Z,5.90
2022-08-03T22:15:33.875Z,5.40
2022-08-03T22:18:23.356Z,5.30
2022-08-03T22:21:46.966Z,5.80
2022-08-03T22:24:44.753Z,5.70
2022-08-03T22:27:53.292Z,5.80
2022-08-03T22:31:30.654Z,5.00
2022-08-03T22:34:55.780Z,5.60
2022-08-03T22:38:12.498Z,5.80
2022-08-03T22:41:03.759Z,6.10
2022-08-03T22:43:33.406Z,5.50
2022-08-03T22:46:09.528Z,6.30
2022-08-03T22:48:42.812Z,6.10
2022-08-03T22:51:11.310Z,6.40
2022-08-03T22:53:40.796Z,5.70
2022-08-03T22:56:15.975Z,7.50
2022-08-03T22:58:44.209Z,6.60
2022-08-03T23:01:22.904Z,5.20
2022-08-03T23:04:02.044Z,6.00
2022-08-03T23:06:37.420Z,5.60
2022-08-03T23:09:11.526Z,5.90
2022-08-03T23:11:46.352Z,5.80
2022-08-03T23:14:20.634Z,6.00
2022-08-03T23:16:56.775Z,5.40
2022-08-03T23:19:34.402Z,5.70
2022-08-03T23:22:27.644Z,5.50
2022-08-03T23:25:07.075Z,5.70
2022-08-03T23:27:40.624Z,6.00
2022-08-03T23:30:11.188Z,5.60
2022-08-03T23:32:56.154Z,6.10
2022-08-03T23:36:28.890Z,6.40
2022-08-03T23:38:41.161Z,6.20
2022-08-03T23:41:10.501Z,6.20
2022-08-03T23:43:53.528Z,6.20
2022-08-03T23:46:27.504Z,6.60
2022-08-03T23:48:56.822Z,5.70
2022-08-03T23:52:07.140Z,6.10
2022-08-03T23:54:49.633Z,6.20
2022-08-03T23:57:35.677Z,9.60
